Lemoine Town, Louisiana
Current Conditions -  °F | °C
As of 5:53 PM on Thursday 27 Nov 2014 (Local Time) from KESF Reporting Station
Clear Clear  
Wind Chill: 44°   Ceiling: Unl
Heat Index: 44°   Visibility: 10mi
Dew Point: 34°   Wind: 0mph
Humidity: 68%   Direction: NA
Pressure: 30.46"   Gusts: NA
Location:  31.0386°N, 91.9871°W
Report Text: KESF 272353Z AUTO 00000KT 10SM CLR 07/01 A3046 RMK AO2 SLP315 T00670011 10156 20067 53008
Loading
Personal Weather Stations






























Interactive Weather Map New forecast layout! Learn more

10-Day Weather Forecast

Advertisements
Track Severe Weather on mobile